Estació municipal de Les Masies de Roda (Osona, Ter)

Consulta les dades en temps real de l'estació municipal de Les Masies de Roda





Hora UTC 12:55
Temperatura 16.5 ºC
Sòl 15 cm 17.6 ºC
Humitat 69.9 %
Pressió 1011.9 hPa
Pluja 0.0 mm
Velocitat vent 6.9 km/h
Direcció vent NE
Radiació solar 170.3 W/m²

Dades diàries 2026-05-09



Hora UTC (hivern +1h; estiu +2h)
Temperatura (ºC) Humitat (%) Pressió (hPa) Velocitat vent (km/h) Precipitació (mm) Radiació solar (W/m²)
Hora UTC Aire Sòl 15 cm Humitat Pressió Vel. Dir. Vel. Max Dir. Intent. màx 5 min. Rad. Sol.
00:05 9.9 8.5 95.9 1014.9 1.5 S 1.5 S 0.0 0.1
00:10 9.9 8.4 96.3 1014.8 1.1 NNE 2.8 N 0.0 0.1
00:15 9.8 8.2 95.9 1014.8 0.6 NNW 2.5 NNW 0.0 0.1
00:20 9.5 7.9 95.9 1014.8 0.0 NNE 0.0 NNW 0.0 0.1
00:25 9.5 7.7 96.3 1015.0 0.0 NNE 0.0 NNW 0.0 0.1
00:30 9.5 7.6 96.5 1014.8 0.0 NNE 0.0 NNW 0.0 0.1
00:35 9.6 7.6 96.7 1014.9 1.6 NNW 3.5 WNW 0.0 0.1
00:40 9.3 7.6 96.5 1014.7 0.6 NW 2.5 WNW 0.0 0.1
00:45 9.4 7.6 96.8 1014.8 0.0 NNE 0.0 N 0.0 0.1
00:50 9.4 7.8 96.7 1014.6 0.0 NNE 0.0 N 0.0 0.1
00:55 9.2 8.2 96.8 1014.9 0.0 NNE 0.0 N 0.0 0.1
01:00 9.4 8.5 97.2 1014.7 0.3 N 2.5 N 0.0 0.1
01:05 9.7 8.8 97.4 1014.8 0.5 NE 2.5 ENE 0.0 0.1
01:10 9.8 9.2 97.4 1014.6 0.0 NNE 0.0 NNE 0.0 0.1
01:15 9.9 9.3 97.4 1014.7 0.0 NNE 0.0 NNE 0.0 0.1
01:20 10.0 9.5 97.4 1014.7 0.0 NNE 0.0 SE 0.0 0.1
01:25 10.0 9.6 97.4 1014.7 0.9 SW 2.8 WSW 0.0 0.1
01:30 10.0 9.7 97.5 1014.6 0.0 NNE 0.0 SW 0.0 0.1
01:35 10.1 9.8 97.6 1014.5 0.0 NNE 0.0 S 0.0 0.1
01:40 10.3 9.9 97.6 1014.5 1.4 W 2.8 W 0.0 0.1
01:45 10.2 9.9 97.5 1014.5 0.0 NW 1.4 NW 0.0 0.1
01:50 10.3 9.9 97.6 1014.4 1.9 NNW 3.2 N 0.0 0.1
01:55 10.3 10.0 97.6 1014.5 2.3 NW 3.2 WNW 0.0 0.1
02:00 10.4 10.0 97.5 1014.3 1.1 NNW 2.8 NNW 0.0 0.1
02:05 10.4 10.0 97.6 1014.4 0.0 NNE 0.0 NNW 0.0 0.1
02:10 10.5 10.1 97.6 1014.3 0.0 NNE 0.0 NNW 0.0 0.1
02:15 10.6 10.2 97.6 1014.3 0.6 NNW 2.5 NNW 0.0 0.1
02:20 10.6 10.2 97.7 1014.1 2.2 N 3.5 NNE 0.0 0.1
02:25 10.7 10.3 97.6 1014.2 3.3 NNW 4.2 NNW 0.0 0.1
02:30 10.8 10.2 97.6 1014.0 1.3 NNW 4.2 NNW 0.0 0.1
02:35 10.7 10.0 97.4 1014.1 0.3 N 2.8 N 0.0 0.1
02:40 10.5 9.7 97.1 1013.9 3.2 W 4.2 W 0.0 0.1
02:45 10.4 9.3 97.2 1014.0 2.6 NW 4.2 NNW 0.0 0.1
02:50 10.4 9.0 97.3 1013.8 2.7 NW 3.9 NNW 0.0 0.1
02:55 10.2 8.7 97.0 1013.9 0.2 WNW 2.1 NW 0.0 0.1
03:00 10.2 8.4 97.2 1013.8 0.0 NNE 0.0 WSW 0.0 0.1
03:05 10.0 8.2 96.8 1013.8 2.8 W 4.2 WSW 0.0 0.1
03:10 9.5 7.9 96.6 1013.6 0.0 WNW 1.4 WNW 0.0 0.1
03:15 9.5 7.7 96.9 1013.7 0.0 NNE 0.0 WNW 0.0 0.1
03:20 9.6 7.6 97.1 1013.6 2.3 SSW 3.9 SSW 0.0 0.1
03:25 9.4 7.4 96.9 1013.7 2.3 WSW 3.2 SSW 0.0 0.1
03:30 9.3 7.2 97.1 1013.6 0.8 W 2.1 W 0.0 0.1
03:35 9.2 7.0 97.1 1013.6 0.7 S 2.8 S 0.0 0.1
03:40 9.1 6.9 97.2 1013.6 4.6 S 7.1 SSE 0.0 0.1
03:45 9.4 7.1 97.6 1013.5 5.4 S 8.5 S 0.0 0.1
03:50 9.5 7.5 97.5 1013.5 5.5 S 7.8 S 0.0 0.1
03:55 9.4 7.7 97.2 1013.6 5.0 SSW 7.8 SSW 0.0 0.1
04:00 9.2 7.6 97.0 1013.7 5.8 SSW 8.8 SSW 0.0 0.1
04:05 9.1 7.5 97.0 1013.6 5.0 S 7.8 S 0.0 0.1
04:10 9.1 7.5 97.0 1013.6 3.6 S 6.0 SSE 0.0 0.1
04:15 9.1 7.4 96.8 1013.4 2.3 SSE 4.6 S 0.0 0.1
04:20 9.2 7.3 96.7 1013.5 3.1 SSE 6.0 SSE 0.0 0.2
04:25 8.8 7.3 95.9 1013.4 1.9 WNW 3.9 NW 0.0 0.5
04:30 8.4 7.2 95.8 1013.7 3.7 WNW 5.0 WNW 0.0 2.0
04:35 8.4 7.2 96.6 1013.5 2.4 NNW 3.5 NNW 0.0 2.5
04:40 8.8 7.4 96.9 1013.7 2.9 N 5.0 N 0.0 1.9
04:45 8.8 7.8 96.9 1013.6 0.1 N 1.8 N 0.0 3.0
04:50 8.8 8.0 96.7 1013.8 0.0 NNE 0.0 N 0.0 5.1
04:55 8.9 8.2 97.0 1013.6 0.8 N 2.5 N 0.0 8.3
05:00 9.0 8.4 97.0 1013.8 0.5 N 2.5 N 0.0 10.4
05:05 9.0 8.5 97.1 1013.8 2.5 NNW 3.2 NNW 0.0 11.8
05:10 9.1 8.7 97.3 1013.8 3.4 NNW 5.0 NNW 0.0 15.5
05:15 9.2 8.9 97.3 1013.8 4.5 NNW 6.4 NNW 0.0 19.4
05:20 9.3 9.0 97.3 1013.8 4.8 NNW 6.7 NNW 0.0 23.8
05:25 9.5 9.2 97.2 1013.8 5.1 NNW 7.4 NNW 0.0 28.0
05:30 9.7 9.4 97.3 1013.7 5.6 NNW 9.2 NNW 0.0 33.0
05:35 9.9 9.5 97.1 1013.8 6.1 NNW 9.5 N 0.0 40.6
05:40 10.0 9.6 96.9 1013.9 3.2 NNW 8.5 NNW 0.0 48.3
05:45 10.2 9.8 96.8 1014.0 1.6 SW 3.5 NW 0.0 50.0
05:50 10.3 10.0 96.8 1014.0 0.7 WNW 2.5 WSW 0.0 48.4
05:55 10.5 10.2 96.8 1014.0 3.0 NW 5.0 NNW 0.0 50.7
06:00 10.6 10.5 96.8 1013.8 3.0 N 5.7 NNW 0.0 61.1
06:05 10.7 10.6 96.7 1013.8 4.5 NNE 8.8 NE 0.0 77.4
06:10 10.7 10.7 96.4 1013.8 1.6 NE 6.0 NNE 0.0 89.3
06:15 10.9 10.8 96.2 1013.8 1.9 N 5.0 N 0.0 96.9
06:20 11.0 11.0 95.8 1013.6 2.8 NW 5.3 NNW 0.0 111.2
06:25 11.1 11.2 95.4 1013.7 0.7 WSW 3.2 SW 0.0 122.5
06:30 11.3 11.4 94.7 1013.7 2.0 SW 3.9 SW 0.0 136.2
06:35 11.4 11.5 92.9 1013.7 0.0 WSW 1.4 WSW 0.0 148.0
06:40 11.5 11.7 91.2 1013.8 1.5 SSE 3.2 SSE 0.0 155.5
06:45 11.7 11.9 90.9 1013.7 3.3 SSW 4.6 SSW 0.0 189.6
06:50 12.0 12.2 90.6 1013.7 2.9 W 5.0 W 0.0 214.7
06:55 12.2 12.4 89.3 1013.6 1.5 W 3.2 WSW 0.0 217.7
07:00 12.5 12.8 89.3 1013.6 1.5 SW 3.9 SW 0.0 231.9
07:05 12.8 13.1 87.7 1013.4 0.8 WNW 2.8 W 0.0 240.4
07:10 12.9 13.3 84.6 1013.5 3.4 NNW 5.7 NNW 0.0 258.6
07:15 12.5 13.5 85.7 1013.2 3.4 NNE 7.1 NNE 0.0 263.4
07:20 12.7 13.8 86.4 1013.3 2.1 N 4.2 NNE 0.0 251.0
07:25 12.8 14.0 84.5 1013.1 3.3 N 5.7 N 0.0 257.9
07:30 12.9 14.2 84.6 1013.3 0.7 NE 2.8 SSW 0.0 272.3
07:35 13.3 14.7 83.7 1013.2 1.1 WSW 3.5 SW 0.0 285.4
07:40 13.5 15.5 78.6 1013.3 1.9 N 3.5 N 0.0 286.6
07:45 13.5 15.8 80.0 1013.2 1.8 NW 4.6 W 0.0 288.8
07:50 13.6 16.1 81.0 1013.3 3.4 WNW 6.0 WSW 0.0 293.7
07:55 14.0 16.5 84.5 1013.2 3.5 WSW 6.0 WSW 0.0 319.6
08:00 14.3 17.0 82.5 1013.3 3.4 SW 6.4 SW 0.0 364.9
08:05 14.7 17.7 79.7 1013.0 2.8 W 7.1 NW 0.0 386.7
08:10 14.8 18.2 78.1 1013.0 2.7 NW 7.1 NNW 0.0 397.8
08:15 14.5 18.5 78.0 1012.8 3.0 NNE 6.4 NNE 0.0 395.6
08:20 14.8 18.7 77.2 1012.8 1.9 NNW 6.4 NNW 0.0 491.8
08:25 15.4 19.3 76.4 1012.5 2.8 N 8.5 NNW 0.0 545.9
08:30 15.4 19.8 74.8 1012.5 3.3 N 8.1 NNW 0.0 523.3
08:35 15.4 20.1 74.9 1012.6 3.9 N 7.1 NNE 0.0 458.1
08:40 15.6 20.2 74.4 1012.7 3.1 N 6.0 NNW 0.0 466.6
08:45 15.7 20.3 74.7 1012.6 3.6 N 7.8 N 0.0 504.8
08:50 16.0 20.5 75.8 1012.8 5.0 NW 7.8 NW 0.0 528.2
08:55 16.6 21.1 75.0 1012.8 4.8 W 7.4 SW 0.0 482.6
09:00 16.7 21.4 75.4 1013.0 7.9 WNW 11.0 W 0.0 393.1
09:05 16.9 21.6 75.5 1012.7 6.7 WNW 9.5 W 0.0 401.8
09:10 17.1 21.8 71.1 1012.7 4.5 NNW 8.8 NW 0.0 401.1
09:15 17.0 21.7 70.6 1012.6 4.6 NNW 9.5 NE 0.0 442.4
09:20 17.3 21.7 71.3 1012.7 5.9 NE 11.0 ESE 0.0 441.4
09:25 17.8 22.1 66.1 1012.7 4.8 E 13.8 SSE 0.0 400.3
09:30 17.8 22.3 65.5 1012.7 8.7 E 16.6 E 0.0 445.9
09:35 17.6 22.1 65.7 1012.8 10.1 E 19.4 ENE 0.0 473.5
09:40 17.6 21.8 64.4 1012.8 10.7 E 19.4 ENE 0.0 448.7
09:45 17.8 21.7 65.0 1013.0 7.7 E 16.2 E 0.0 450.3
09:50 18.0 21.9 63.1 1012.9 9.7 E 18.7 ESE 0.0 395.5
09:55 18.0 21.9 63.4 1013.0 7.9 E 16.2 E 0.0 394.4
10:00 18.0 21.8 61.5 1012.9 10.8 E 21.5 E 0.0 477.6
10:05 18.0 21.7 61.4 1013.1 11.9 ENE 20.1 ENE 0.0 491.6
10:10 17.9 21.8 61.5 1013.0 10.7 ENE 18.7 ENE 0.0 483.0
10:15 18.0 21.8 62.7 1013.2 9.9 E 18.0 E 0.0 330.9
10:20 17.9 21.4 63.1 1013.2 10.5 E 19.4 E 0.0 308.6
10:25 17.7 20.8 62.9 1013.1 12.4 E 22.6 E 0.0 320.9
10:30 17.6 20.4 63.2 1013.1 11.4 E 19.1 ENE 0.0 321.1
10:35 17.7 20.2 63.3 1012.9 10.4 E 22.6 ENE 0.0 258.8
10:40 17.4 19.9 62.6 1013.0 12.0 E 19.8 E 0.0 249.7
10:45 17.5 19.5 62.8 1012.9 11.1 ESE 21.5 ESE 0.0 236.5
10:50 17.4 19.3 63.4 1013.1 10.0 E 17.3 ESE 0.0 196.7
10:55 17.2 18.9 64.4 1012.9 8.8 ESE 17.3 E 0.0 175.6
11:00 17.2 18.7 64.5 1013.0 9.7 E 18.0 ESE 0.0 183.0
11:05 17.1 18.4 65.4 1012.9 10.5 E 18.4 ENE 0.0 186.8
11:10 17.0 18.2 65.8 1013.1 9.7 E 15.9 ESE 0.0 172.2
11:15 17.0 18.1 66.4 1012.9 7.6 E 13.8 ESE 0.0 164.0
11:20 17.0 18.1 66.0 1013.1 7.9 E 13.8 E 0.0 151.8
11:25 16.9 17.9 67.0 1013.0 6.0 E 15.5 ESE 0.0 149.5
11:30 17.0 17.9 66.6 1012.9 5.1 E 13.4 ENE 0.0 136.0
11:35 16.9 17.9 66.0 1012.9 6.8 ESE 16.2 ESE 0.0 106.5
11:40 16.8 17.7 65.9 1013.0 7.8 E 15.9 ENE 0.0 94.2
11:45 16.7 17.4 66.9 1013.0 6.2 E 16.2 E 0.0 94.8
11:50 16.7 17.2 66.8 1013.0 5.7 ESE 9.9 ENE 0.0 93.7
11:55 16.7 17.1 67.9 1013.0 5.7 ESE 9.5 ESE 0.0 97.2
12:00 16.7 17.0 68.6 1012.9 7.7 E 12.7 E 0.0 106.5
12:05 16.6 16.9 69.1 1012.9 6.6 E 13.4 ENE 0.0 98.8
12:10 16.6 16.8 69.3 1012.8 7.7 ESE 15.2 SE 0.0 101.0
12:15 16.5 16.8 69.5 1012.8 7.0 E 12.7 E 0.0 106.2
12:20 16.6 16.8 69.5 1012.7 7.9 E 14.8 ESE 0.0 120.9
12:25 16.6 16.9 69.3 1012.6 7.1 E 13.4 NE 0.0 154.0
12:30 16.6 17.2 69.5 1012.3 9.0 ENE 14.8 ENE 0.0 210.9
12:35 16.6 17.6 69.1 1012.2 8.6 E 16.2 ENE 0.0 228.9
12:40 16.7 17.9 68.6 1012.2 7.9 E 14.1 SE 0.0 169.9
12:45 16.6 17.9 68.9 1012.2 7.7 E 12.4 ESE 0.0 164.2
12:50 16.5 17.7 69.4 1012.0 6.7 ENE 14.1 NE 0.0 160.9
12:55 16.5 17.6 69.9 1011.9 6.9 NE 11.7 NNE 0.0 170.3
Màxima 18.0 22.3 97.7 1015.0 12.4 E 22.6 ENE 0.0 545.9
Mínima 8.4 6.9 61.4 1011.9
Total 0.0